Home > Products > Valid Products > MTR

000
SAUS46 KPQR 241753
MTRREO
METAR KREO 241752Z AUTO 23007KT 05/M04 A3043 RMK AO1 SLP320
T00501044 10050 21028 51015





000
SAUS46 KPQR 241654
MTRREO
METAR KREO 241652Z AUTO 21005KT 03/M04 A3042 RMK AO1 SLP319
T00281044





000
SAUS46 KPQR 241553
MTRREO
METAR KREO 241552Z AUTO 15007KT 00/M06 A3039 RMK AO1 SLP311
T00001056





000
SAUS46 KPQR 241453
MTRREO
METAR KREO 241452Z AUTO 18006KT M02/M06 A3038 RMK AO1 SLP310
T10221061 52016





000
SAUS46 KPQR 241353
MTRREO
METAR KREO 241352Z AUTO 00000KT M02/M06 A3037 RMK AO1 SLP307
T10171061





000
SAUS46 KPQR 241257
MTRREO
METAR KREO 241252Z AUTO 19008KT 01/M06 A3034 RMK AO1 SLP294
T00061061





000
SAUS46 KPQR 241153
MTRREO
METAR KREO 241152Z AUTO 19010KT 00/M06 A3032 RMK AO1 SLP285
T00001061 10039 21022 50007





000
SAUS46 KPQR 241053
MTRREO
METAR KREO 241052Z AUTO 20008KT 00/M06 A3034 RMK AO1 SLP288
T00001061





000
SAUS46 KPQR 240953
MTRREO
METAR KREO 240952Z AUTO 18008KT 00/M06 A3031 RMK AO1 SLP278
T00001061





000
SAUS46 KPQR 240953
MTRREO
METAR KREO 240952Z AUTO 18008KT 00/M06 A3031 RMK AO1 SLP278
T00001061





000
SAUS46 KPQR 240853
MTRREO
METAR KREO 240852Z AUTO 23009KT 03/M06 A3030 RMK AO1 SLP271
T00331061 51015





000
SAUS46 KPQR 240753
MTRREO
METAR KREO 240752Z AUTO 17006KT 02/M06 A3030 RMK AO1 SLP272
T00171061 400721028





000
SAUS46 KPQR 240653
MTRREO
METAR KREO 240652Z AUTO 21005KT 02/M07 A3028 RMK AO1 SLP265
T00221072





000
SAUS46 KPQR 240553
MTRREO
METAR KREO 240552Z AUTO 19009KT 02/M07 A3025 RMK AO1 SLP259
T00171067 10050 20011 51007





000
SAUS46 KPQR 240453
MTRREO
METAR KREO 240452Z AUTO 20009KT 03/M06 A3025 RMK AO1 SLP257
T00281061





000
SAUS46 KPQR 240353
MTRREO
METAR KREO 240352Z AUTO 21013KT 04/M06 A3024 RMK AO1 SLP259
T00391056





000
SAUS46 KPQR 240353
MTRREO
METAR KREO 240352Z AUTO 21013KT 04/M06 A3024 RMK AO1 SLP259
T00391056





000
SAUS46 KPQR 240253
MTRREO
METAR KREO 240252Z AUTO 21012KT 03/M05 A3023 RMK AO1 SLP257
T00331050 56003





000
SAUS46 KPQR 240153
MTRREO
METAR KREO 240152Z AUTO 20007KT 02/M04 A3024 RMK AO1 SLP258
T00171044





000
SAUS46 KPQR 240056 COR
MTRREO
METAR KREO 240052Z AUTO 20009KT 02/M05 A3022 RMK AO1 SLP257
T00221050





000
SAUS46 KPQR 240055 COR
MTRREO
METAR KREO 240052Z AUTO 20009KT 02/M05 A3022 RMK AO1 SLP257
T00221050





000
SAUS46 KPQR 240054 COR
MTRREO
METAR KREO 240052Z AUTO 20009KT 02/M05 A3022 RMK AO1 SLP257
T00221050





000
SAUS46 KPQR 240053
MTRREO
METAR KREO 240052Z AUTO 20009KT 02/M05 A3022 RMK AO1 SLP257
T00221050





000
SAUS46 KPQR 232353
MTRREO
METAR KREO 232352Z AUTO 19005KT 05/M05 A3024 RMK AO1 SLP258
T00501050 10072 20044 55006





000
SAUS46 KPQR 232253
MTRREO
METAR KREO 232252Z AUTO 21012KT 07/M05 A3024 RMK AO1 SLP251
T00671050





000
SAUS46 KPQR 232153
MTRREO
METAR KREO 232152Z AUTO 21013KT 07/M06 A3025 RMK AO1 SLP255
T00721056





000
SAUS46 KPQR 232153
MTRREO
METAR KREO 232152Z AUTO 21013KT 07/M06 A3025 RMK AO1 SLP255
T00721056





000
SAUS46 KPQR 232053
MTRREO
METAR KREO 232052Z AUTO 22014KT 07/M05 A3026 RMK AO1 SLP259
T00671050 58020





000
SAUS46 KPQR 231953
MTRREO
METAR KREO 231952Z AUTO 21014KT 06/M05 A3029 RMK AO1 SLP269
T00611050





000
SAUS46 KPQR 231953
MTRREO
METAR KREO 231952Z AUTO 21014KT 06/M05 A3029 RMK AO1 SLP269
T00611050





000
SAUS46 KPQR 231853
MTRREO
METAR KREO 231852Z AUTO 22013KT 06/M04 A3031 RMK AO1 SLP278
T00561044





000
SAUS46 KPQR 231753
MTRREO
METAR KREO 231752Z AUTO 21012KT 04/M04 A3033 RMK AO1 SLP284
T00441044 10044 21028 53009





000
SAUS46 KPQR 231653
MTRREO
METAR KREO 231652Z AUTO 18008KT 03/M04 A3031 RMK AO1 SLP281
T00331039





000
SAUS46 KPQR 231553
MTRREO
METAR KREO 231552Z AUTO 15009KT 00/M05 A3030 RMK AO1 SLP282
T00001050





000
SAUS46 KPQR 231553
MTRREO
METAR KREO 231552Z AUTO 15009KT 00/M05 A3030 RMK AO1 SLP282
T00001050





000
SAUS46 KPQR 231453
MTRREO
METAR KREO 231452Z AUTO 17006KT M02/M06 A3030 RMK AO1 SLP282
T10171056 51017





000
SAUS46 KPQR 231353
MTRREO
METAR KREO 231352Z AUTO 18007KT 01/M05 A3029 RMK AO1 SLP274
T00111050





000
SAUS46 KPQR 231258
MTRREO
METAR KREO 231252Z AUTO 17007KT M02/M06 A3027 RMK AO1 SLP272
T10171056





000
SAUS46 KPQR 231153
MTRREO
METAR KREO 231152Z AUTO 14005KT M01/M06 A3024 RMK AO1 SLP260 70023
T10111056 10022 21011 51018





000
SAUS46 KPQR 231053
MTRREO
METAR KREO 231052Z AUTO 22005KT 01/M06 A3023 RMK AO1 SLP256
T00061061





000
SAUS46 KPQR 230953
MTRREO
METAR KREO 230952Z AUTO 22008KT 02/M06 A3020 RMK AO1 SLP236
T00171061





000
SAUS46 KPQR 230953
MTRREO
METAR KREO 230952Z AUTO 22008KT 02/M06 A3020 RMK AO1 SLP236
T00171061





000
SAUS46 KPQR 230853
MTRREO
METAR KREO 230852Z AUTO 17005KT 01/M06 A3018 RMK AO1 SLP232
T00111056 53025





000
SAUS46 KPQR 230753
MTRREO
METAR KREO 230752Z AUTO VRB05KT 02/M06 A3016 RMK AO1 SLP224
T00171056 401110000





000
SAUS46 KPQR 230653
MTRREO
METAR KREO 230652Z AUTO 23014KT 02/M05 A3012 RMK AO1 SLP212
T00221050





000
SAUS46 KPQR 230554
MTRREO
METAR KREO 230552Z AUTO 25013KT 02/M04 A3010 RMK AO1 SLP197
T00221044 10050 20017 51026





000
SAUS46 KPQR 230454
MTRREO
METAR KREO 230452Z AUTO 25013KT 02/M04 A3007 RMK AO1 SLP190
T00221044





000
SAUS46 KPQR 230353
MTRREO
METAR KREO 230352Z AUTO 25014KT 02/M04 A3006 RMK AO1 SLP185
T00221039





000
SAUS46 KPQR 230253
MTRREO
METAR KREO 230252Z AUTO 27014G27KT 03/M04 A3001 RMK AO1 PK WND
27027/0246 SLP166 T00281039 51029





000
SAUS46 KPQR 230153
MTRREO
METAR KREO 230152Z AUTO 25012KT 03/M03 A2999 RMK AO1 PK WND
26032/0115 SLP155 T00331033





000
SAUS46 KPQR 230053
MTRREO
METAR KREO 230052Z AUTO 27010KT 04/M03 A2996 RMK AO1 PK WND
26027/0000 SLP145 T00391033





000
SAUS46 KPQR 222353
MTRREO
METAR KREO 222352Z AUTO 24011KT 04/00 A2992 RMK AO1 SLP129 P0001
60023 T00440000 10094 20028 53022





000
SAUS46 KPQR 222253
MTRREO
METAR KREO 222252Z AUTO 28015G27KT 04/00 A2989 RMK AO1 PK WND
29027/2246 SLP122 T00390000





000
SAUS46 KPQR 222153
MTRREO
METAR KREO 222152Z AUTO 20013KT 08/00 A2984 RMK AO1 SLP100 T00780000





000
SAUS46 KPQR 222153
MTRREO
METAR KREO 222152Z AUTO 20013KT 08/00 A2984 RMK AO1 SLP100 T00780000





000
SAUS46 KPQR 222053
MTRREO
METAR KREO 222052Z AUTO 24012KT 07/01 A2984 RMK AO1 SLP103 60022
T00670006 50016





000
SAUS46 KPQR 221953
MTRREO
METAR KREO 221952Z AUTO 26020G25KT 06/01 A2985 RMK AO1 PK WND
26029/1940 SLP109 T00610006





000
SAUS46 KPQR 221853
MTRREO
METAR KREO 221852Z AUTO 28015KT 03/01 A2983 RMK AO1 PK WND
28030/1828 WSHFT 1753 SLP106 P0022 T00330011





000
SAUS46 KPQR 221811
MTRREO
SPECI KREO 221810Z AUTO 30022G30KT 05/01 A2983 RMK AO1 PK WND
30030/1809 WSHFT 1753 PRESRR T00500011





000
SAUS46 KPQR 221753
MTRREO
METAR KREO 221752Z AUTO 24010KT 09/02 A2979 RMK AO1 SLP084 T00940022
10111 20083 53016





000
SAUS46 KPQR 221653
MTRREO
METAR KREO 221652Z AUTO 23015G19KT 09/02 A2976 RMK AO1 SLP076
T00890022





000
SAUS46 KPQR 221553
MTRREO
METAR KREO 221552Z AUTO 23017G22KT 08/03 A2976 RMK AO1 PK WND
23031/1525 SLP074 T00830033





000
SAUS46 KPQR 221553
MTRREO
METAR KREO 221552Z AUTO 23017G22KT 08/03 A2976 RMK AO1 PK WND
23031/1525 SLP074 T00830033





000
SAUS46 KPQR 221453
MTRREO
METAR KREO 221452Z AUTO 23012KT 09/04 A2974 RMK AO1 PK WND
21032/1357 SLP064 T00940044 53007





000
SAUS46 KPQR 221353
MTRREO
METAR KREO 221352Z AUTO 21027G35KT 11/04 A2971 RMK AO1 PK WND
20035/1352 SLP052 T01060039





000
SAUS46 KPQR 221258
MTRREO
METAR KREO 221252Z AUTO 20014KT 11/03 A2971 RMK AO1 PK WND
22026/1212 SLP052 T01060033





000
SAUS46 KPQR 221153
MTRREO
METAR KREO 221152Z AUTO 21017G26KT 11/03 A2971 RMK AO1 PK WND
16035/1105 SLP052 70003 T01110033 10111 20056 56010





000
SAUS46 KPQR 221053
MTRREO
METAR KREO 221052Z AUTO 17021KT 09/03 A2972 RMK AO1 PK WND
17028/1041 SLP058 T00940028





000
SAUS46 KPQR 220953
MTRREO
METAR KREO 220952Z AUTO 20017KT 09/02 A2972 RMK AO1 PK WND
19033/0900 SLP056 T00940022





000
SAUS46 KPQR 220854
MTRREO
METAR KREO 220852Z AUTO 18026G31KT 09/02 A2975 RMK AO1 PK WND
19031/0852 SLP065 T00890022 58015





000
SAUS46 KPQR 220753
MTRREO
METAR KREO 220752Z AUTO 17022G28KT 07/02 A2976 RMK AO1 PK WND
16031/0717 SLP074 T00720022 401001033





000
SAUS46 KPQR 220653
MTRREO
METAR KREO 220652Z AUTO 17017G23KT 08/02 A2980 RMK AO1 PK WND
15027/0553 SLP090 T00780017





000
SAUS46 KPQR 220553
MTRREO
METAR KREO 220552Z AUTO 14020G30KT 06/01 A2980 RMK AO1 PK WND
14033/0537 SLP090 60003 T00610011 10089 20056 55013





000
SAUS46 KPQR 220453
MTRREO
METAR KREO 220452Z AUTO 15022G28KT 06/01 A2978 RMK AO1 PK WND
15028/0448 SLP090 T00610011





000
SAUS46 KPQR 220353
MTRREO
METAR KREO 220352Z AUTO 19013G23KT 07/03 A2981 RMK AO1 SLP105 P0003
T00720028





000
SAUS46 KPQR 220253
MTRREO
METAR KREO 220252Z AUTO 20008KT 07/00 A2984 RMK AO1 SLP115 T00670000
58013





000
SAUS46 KPQR 220153
MTRREO
METAR KREO 220152Z AUTO 21011KT 07/M01 A2987 RMK AO1 SLP129
T00721006





000
SAUS46 KPQR 220053
MTRREO
METAR KREO 220052Z AUTO 21012KT 08/M01 A2988 RMK AO1 SLP126
T00831006





000
SAUS46 KPQR 212356 COR
MTRREO
METAR KREO 212352Z AUTO 19008KT 09/00 A2989 RMK AO1 SLP129 T00890000
10100 20067 56011





000
SAUS46 KPQR 212355 COR
MTRREO
METAR KREO 212352Z AUTO 19008KT 09/00 A2989 RMK AO1 SLP129 T00890000
10100 20067 56011





000
SAUS46 KPQR 212354 COR
MTRREO
METAR KREO 212352Z AUTO 19008KT 09/00 A2989 RMK AO1 SLP129 T00890000
10100 20067 56011





000
SAUS46 KPQR 212353
MTRREO
METAR KREO 212352Z AUTO 19008KT 09/00 A2989 RMK AO1 SLP129 T00890000
10100 20067 56011





000
SAUS46 KPQR 212253
MTRREO
METAR KREO 212252Z AUTO 21010KT 09/00 A2989 RMK AO1 SLP130 T00940000





000
SAUS46 KPQR 212153
MTRREO
METAR KREO 212152Z AUTO 23005KT 10/00 A2991 RMK AO1 SLP135 T01000000





000
SAUS46 KPQR 212057 COR
MTRREO
METAR KREO 212052Z AUTO 18005KT 10/M01 A2992 RMK AO1 SLP139
T01001006 58017





000
SAUS46 KPQR 212055
MTRREO
L


000
SAUS46 KPQR 212054
MTRREO
L052Z AUTO 18005KT 10/M01 A2992 RMK AO&*S139
T01001006 58017





000
SAUS46 KPQR 211953
MTRREO
METAR KREO 211952Z AUTO 18007KT 09/00 A2995 RMK AO1 SLP149 T00890000





    US Dept of Commerce
    National Oceanic and Atmospheric Administration
    National Weather Service
    1325 East West Highway
    Silver Spring, MD 20910
    Page Author: NWS Internet Services Team
Disclaimer
Information Quality
Credits
Glossary
Privacy Policy
Freedom of Information Act (FOIA)
About Us
Career Opportunities